createdAt,value
2022-11-21T00:00:02.851Z,44.98
2022-11-21T00:02:29.186Z,44.94
2022-11-21T00:04:55.579Z,44.95
2022-11-21T00:07:22.961Z,44.95
2022-11-21T00:09:49.309Z,44.97
2022-11-21T00:12:15.648Z,44.97
2022-11-21T00:14:42.048Z,44.95
2022-11-21T00:17:08.394Z,44.92
2022-11-21T00:19:34.780Z,44.89
2022-11-21T00:22:01.126Z,44.95
2022-11-21T00:24:27.708Z,44.91
2022-11-21T00:26:53.880Z,44.95
2022-11-21T00:29:20.260Z,44.91
2022-11-21T00:31:46.603Z,44.92
2022-11-21T00:34:12.997Z,44.93
2022-11-21T00:36:39.343Z,44.90
2022-11-21T00:39:05.739Z,44.94
2022-11-21T00:41:32.081Z,44.91
2022-11-21T00:43:58.473Z,44.87
2022-11-21T00:46:24.811Z,44.89
2022-11-21T00:48:51.209Z,44.87
2022-11-21T00:51:17.556Z,44.89
2022-11-21T00:53:43.949Z,44.96
2022-11-21T00:56:10.295Z,44.91
2022-11-21T00:58:36.679Z,44.85
2022-11-21T01:01:03.072Z,44.84
2022-11-21T01:03:29.415Z,44.85
2022-11-21T01:05:55.765Z,44.84
2022-11-21T01:08:22.155Z,44.99
2022-11-21T01:10:48.524Z,44.98
2022-11-21T01:13:14.914Z,44.94
2022-11-21T01:15:41.256Z,44.91
2022-11-21T01:18:07.683Z,44.85
2022-11-21T01:20:34.007Z,44.84
2022-11-21T01:23:00.404Z,44.84
2022-11-21T01:25:26.740Z,44.84
2022-11-21T01:27:53.140Z,44.83
2022-11-21T01:30:19.488Z,44.80
2022-11-21T01:32:45.875Z,44.83
2022-11-21T01:35:12.217Z,44.83
2022-11-21T01:37:38.692Z,44.87
2022-11-21T01:40:05.029Z,44.91
2022-11-21T01:42:32.195Z,44.87
2022-11-21T01:44:58.533Z,44.87
2022-11-21T01:47:24.879Z,44.86
2022-11-21T01:49:51.269Z,44.85
2022-11-21T01:52:17.603Z,44.84
2022-11-21T01:54:44.004Z,44.88
2022-11-21T01:57:10.342Z,44.86
2022-11-21T01:59:36.734Z,44.90
2022-11-21T02:02:03.077Z,44.91
2022-11-21T02:04:29.680Z,44.86
2022-11-21T02:06:55.814Z,44.85
2022-11-21T02:09:22.194Z,44.91
2022-11-21T02:11:48.553Z,44.85
2022-11-21T02:14:14.937Z,44.88
2022-11-21T02:16:41.286Z,44.89
2022-11-21T02:19:07.666Z,44.87
2022-11-21T02:21:34.024Z,44.87
2022-11-21T02:24:00.757Z,44.85
2022-11-21T02:26:26.756Z,44.88
2022-11-21T02:28:53.144Z,44.87
2022-11-21T02:31:19.500Z,44.85
2022-11-21T02:33:45.930Z,44.83
2022-11-21T02:36:12.271Z,44.87
2022-11-21T02:38:38.677Z,44.82
2022-11-21T02:41:05.017Z,44.86
2022-11-21T02:43:31.433Z,44.89
2022-11-21T02:45:57.786Z,44.93
2022-11-21T02:48:24.172Z,44.95
2022-11-21T02:50:50.518Z,44.93
2022-11-21T02:53:16.911Z,44.90
2022-11-21T02:55:43.264Z,44.93
2022-11-21T02:58:09.647Z,44.87
2022-11-21T03:00:36.106Z,44.87
2022-11-21T03:03:02.386Z,44.88
2022-11-21T03:05:28.774Z,44.90
2022-11-21T03:07:55.151Z,44.78
2022-11-21T03:10:21.506Z,44.75
2022-11-21T03:12:47.886Z,44.70
2022-11-21T03:15:14.230Z,44.71
2022-11-21T03:17:40.621Z,44.67
2022-11-21T03:20:06.959Z,44.63
2022-11-21T03:22:33.400Z,44.54
2022-11-21T03:24:59.750Z,44.49
2022-11-21T03:27:26.152Z,44.41
2022-11-21T03:29:52.549Z,44.34
2022-11-21T03:32:18.934Z,44.30
2022-11-21T03:34:45.279Z,44.24
2022-11-21T03:37:11.675Z,44.14
2022-11-21T03:39:38.025Z,44.13
2022-11-21T03:42:04.416Z,44.05
2022-11-21T03:44:30.792Z,44.00
2022-11-21T03:46:57.181Z,43.99
2022-11-21T03:49:23.517Z,43.93
2022-11-21T03:51:49.920Z,43.88
2022-11-21T03:54:16.273Z,43.78
2022-11-21T03:56:42.657Z,43.83
2022-11-21T03:59:08.993Z,43.77
2022-11-21T04:01:36.946Z,43.72
2022-11-21T04:04:01.732Z,43.70
2022-11-21T04:06:28.122Z,43.62
2022-11-21T04:08:54.465Z,43.56
2022-11-21T04:11:21.986Z,43.57
2022-11-21T04:13:48.342Z,43.50
2022-11-21T04:16:14.792Z,43.43
2022-11-21T04:18:41.147Z,43.37
2022-11-21T04:21:07.522Z,43.41
2022-11-21T04:23:33.903Z,43.30
2022-11-21T04:26:00.288Z,43.25
2022-11-21T04:28:26.639Z,43.28
2022-11-21T04:30:54.965Z,43.23
2022-11-21T04:33:19.433Z,43.18
2022-11-21T04:35:45.810Z,43.14
2022-11-21T04:38:12.168Z,43.12
2022-11-21T04:40:38.554Z,43.05
2022-11-21T04:43:04.898Z,43.08
2022-11-21T04:45:31.291Z,43.06
2022-11-21T04:47:57.634Z,42.98
2022-11-21T04:50:24.025Z,42.97
2022-11-21T04:52:50.387Z,42.86
2022-11-21T04:55:16.801Z,42.77
2022-11-21T04:57:43.146Z,42.73
2022-11-21T05:00:09.531Z,42.62
2022-11-21T05:02:35.873Z,42.58
2022-11-21T05:05:02.264Z,42.51
2022-11-21T05:07:28.665Z,42.46
2022-11-21T05:09:55.021Z,42.50
2022-11-21T05:12:21.361Z,42.57
2022-11-21T05:14:49.419Z,42.59
2022-11-21T05:17:14.096Z,42.61
2022-11-21T05:19:40.481Z,42.53
2022-11-21T05:22:06.830Z,42.41
2022-11-21T05:24:33.211Z,42.37
2022-11-21T05:26:59.553Z,42.26
2022-11-21T05:29:28.195Z,42.30
2022-11-21T05:31:52.288Z,42.18
2022-11-21T05:34:18.682Z,42.24
2022-11-21T05:36:45.049Z,42.37
2022-11-21T05:39:11.428Z,42.83
2022-11-21T05:41:37.775Z,42.33
2022-11-21T05:44:04.156Z,42.36
2022-11-21T05:46:30.507Z,42.12
2022-11-21T05:48:56.911Z,42.25
2022-11-21T05:51:23.301Z,42.19
2022-11-21T05:53:49.693Z,42.17
2022-11-21T05:56:16.054Z,42.05
2022-11-21T05:58:42.431Z,42.03
2022-11-21T06:01:08.776Z,41.91
2022-11-21T06:03:35.180Z,41.88
2022-11-21T06:06:01.524Z,41.79
2022-11-21T06:08:27.911Z,41.82
2022-11-21T06:10:54.288Z,41.72
2022-11-21T06:13:20.673Z,41.81
2022-11-21T06:15:47.016Z,41.72
2022-11-21T06:18:13.408Z,41.63
2022-11-21T06:20:39.752Z,41.53
2022-11-21T06:23:06.143Z,41.60
2022-11-21T06:25:32.495Z,41.56
2022-11-21T06:27:58.897Z,41.47
2022-11-21T06:30:25.242Z,41.48
2022-11-21T06:32:52.626Z,41.48
2022-11-21T06:35:18.950Z,41.37
2022-11-21T06:37:48.474Z,41.31
2022-11-21T06:40:11.714Z,41.22
2022-11-21T06:42:38.104Z,41.11
2022-11-21T06:45:04.457Z,40.98
2022-11-21T06:47:30.853Z,40.93
2022-11-21T06:49:57.198Z,40.83
2022-11-21T06:52:23.608Z,40.82
2022-11-21T06:54:49.944Z,40.78
2022-11-21T06:57:16.400Z,40.70
2022-11-21T06:59:42.761Z,40.56
2022-11-21T07:02:09.155Z,40.54
2022-11-21T07:04:35.528Z,40.41
2022-11-21T07:07:01.983Z,40.34
2022-11-21T07:09:35.367Z,40.18
2022-11-21T07:11:54.684Z,40.24
2022-11-21T07:14:21.031Z,40.20
2022-11-21T07:16:47.419Z,40.45
2022-11-21T07:19:13.763Z,40.12
2022-11-21T07:21:40.162Z,40.19
2022-11-21T07:24:06.518Z,40.04
2022-11-21T07:26:32.898Z,40.30
2022-11-21T07:28:59.247Z,40.15
2022-11-21T07:31:25.679Z,40.07
2022-11-21T07:33:52.033Z,40.05
2022-11-21T07:36:18.445Z,40.03
2022-11-21T07:38:44.797Z,40.06
2022-11-21T07:41:11.191Z,40.02
2022-11-21T07:43:37.539Z,39.93
2022-11-21T07:46:03.958Z,40.11
2022-11-21T07:48:30.308Z,40.05
2022-11-21T07:50:56.758Z,39.98
2022-11-21T07:53:23.105Z,40.11
2022-11-21T07:55:49.503Z,39.99
2022-11-21T07:58:15.868Z,40.14
2022-11-21T08:00:42.566Z,40.14
2022-11-21T08:03:08.821Z,40.16
2022-11-21T08:05:35.300Z,40.16
2022-11-21T08:08:01.571Z,39.87
2022-11-21T08:10:28.045Z,40.03
2022-11-21T08:12:54.325Z,40.00
2022-11-21T08:15:20.709Z,40.15
2022-11-21T08:17:47.060Z,40.06
2022-11-21T08:20:13.468Z,39.96
2022-11-21T08:22:39.910Z,39.99
2022-11-21T08:25:08.485Z,39.95
2022-11-21T08:27:36.029Z,39.86
2022-11-21T08:30:01.221Z,39.78
2022-11-21T08:32:27.578Z,39.70
2022-11-21T08:34:53.976Z,39.77
2022-11-21T08:37:20.387Z,39.61
2022-11-21T08:39:46.794Z,39.60
2022-11-21T08:42:13.202Z,39.41
2022-11-21T08:44:39.604Z,39.28
2022-11-21T08:47:05.975Z,39.56
2022-11-21T08:49:32.418Z,39.15
2022-11-21T08:51:58.789Z,38.93
2022-11-21T08:54:25.446Z,38.79
2022-11-21T08:56:51.637Z,38.79
2022-11-21T08:59:17.998Z,38.74
2022-11-21T09:01:44.391Z,38.55
2022-11-21T09:04:10.733Z,38.73
2022-11-21T09:06:37.126Z,38.70
2022-11-21T09:09:03.526Z,38.48
2022-11-21T09:11:29.888Z,38.84
2022-11-21T09:13:56.286Z,38.85
2022-11-21T09:16:22.635Z,38.92
2022-11-21T09:18:49.030Z,39.07
2022-11-21T09:21:15.415Z,39.06
2022-11-21T09:23:41.877Z,38.96
2022-11-21T09:26:08.229Z,38.93
2022-11-21T09:28:34.615Z,38.79
2022-11-21T09:31:00.983Z,38.63
2022-11-21T09:33:27.462Z,38.66
2022-11-21T09:35:53.873Z,38.67
2022-11-21T09:38:23.997Z,38.59
2022-11-21T09:40:46.710Z,38.66
2022-11-21T09:43:13.108Z,38.56
2022-11-21T09:45:39.541Z,38.55
2022-11-21T09:48:06.011Z,38.57
2022-11-21T09:50:32.352Z,38.54
2022-11-21T09:52:58.776Z,38.48
2022-11-21T09:55:25.121Z,38.42
2022-11-21T09:57:51.574Z,38.41
2022-11-21T10:00:17.932Z,38.38
2022-11-21T10:02:44.317Z,38.30
2022-11-21T10:05:10.655Z,38.35
2022-11-21T10:07:37.112Z,38.27
2022-11-21T10:10:03.409Z,38.21
2022-11-21T10:12:29.824Z,38.19
2022-11-21T10:14:56.184Z,38.20
2022-11-21T10:17:22.579Z,38.08
2022-11-21T10:19:48.923Z,38.02
2022-11-21T10:22:15.358Z,38.00
2022-11-21T10:24:41.706Z,37.94
2022-11-21T10:27:08.115Z,37.93
2022-11-21T10:29:34.509Z,37.90
2022-11-21T10:32:00.886Z,37.86
2022-11-21T10:34:27.608Z,37.83
2022-11-21T10:36:53.648Z,37.84
2022-11-21T10:39:19.998Z,37.83
2022-11-21T10:41:46.420Z,37.75
2022-11-21T10:44:12.773Z,37.74
2022-11-21T10:46:39.255Z,37.79
2022-11-21T10:49:05.612Z,37.79
2022-11-21T10:51:32.032Z,37.79
2022-11-21T10:54:01.935Z,37.74
2022-11-21T10:56:24.802Z,37.76
2022-11-21T10:58:51.151Z,37.73
2022-11-21T11:01:17.596Z,37.68
2022-11-21T11:04:01.017Z,37.66
2022-11-21T11:06:10.326Z,37.67
2022-11-21T11:08:36.680Z,37.62
2022-11-21T11:11:03.088Z,37.72
2022-11-21T11:13:46.564Z,37.75
2022-11-21T11:15:55.867Z,37.73
2022-11-21T11:18:22.216Z,37.73
2022-11-21T11:20:48.618Z,37.66
2022-11-21T11:23:15.125Z,37.62
2022-11-21T11:25:41.542Z,37.66
2022-11-21T11:28:07.885Z,37.58
2022-11-21T11:30:34.352Z,37.52
2022-11-21T11:33:00.745Z,37.52
2022-11-21T11:35:27.188Z,37.42
2022-11-21T11:37:53.577Z,37.46
2022-11-21T11:40:20.045Z,37.38
2022-11-21T11:42:47.172Z,37.41
2022-11-21T11:45:12.788Z,37.36
2022-11-21T11:47:39.140Z,37.38
2022-11-21T11:50:05.542Z,37.32
2022-11-21T11:52:31.903Z,37.39
2022-11-21T11:54:59.620Z,37.43
2022-11-21T11:57:24.723Z,37.42
2022-11-21T11:59:51.141Z,37.37
2022-11-21T12:02:17.600Z,37.30
2022-11-21T12:04:43.963Z,37.30
2022-11-21T12:09:36.947Z,37.30
2022-11-21T12:12:03.268Z,37.36
2022-11-21T12:14:29.623Z,37.30
2022-11-21T12:16:56.026Z,37.30
2022-11-21T12:19:22.389Z,37.22
2022-11-21T12:21:48.792Z,37.20
2022-11-21T12:24:15.132Z,37.12
2022-11-21T12:26:41.554Z,37.07
2022-11-21T12:29:07.895Z,37.08
2022-11-21T12:31:34.293Z,37.08
2022-11-21T12:34:00.680Z,37.03
2022-11-21T12:36:27.083Z,37.01
2022-11-21T12:38:53.568Z,37.03
2022-11-21T12:41:19.842Z,37.03
2022-11-21T12:43:47.109Z,36.98
2022-11-21T12:46:12.609Z,37.00
2022-11-21T12:48:38.968Z,37.02
2022-11-21T12:51:05.374Z,37.06
2022-11-21T12:53:31.810Z,36.97
2022-11-21T12:55:58.240Z,36.94
2022-11-21T12:58:24.593Z,36.88
2022-11-21T13:00:51.118Z,36.91
2022-11-21T13:03:17.395Z,36.88
2022-11-21T13:05:43.809Z,36.88
2022-11-21T13:08:10.165Z,36.91
2022-11-21T13:10:36.565Z,36.83
2022-11-21T13:13:02.965Z,36.86
2022-11-21T13:15:32.811Z,36.75
2022-11-21T13:17:55.728Z,36.84
2022-11-21T13:20:22.154Z,36.79
2022-11-21T13:22:48.515Z,36.74
2022-11-21T13:25:14.922Z,36.74
2022-11-21T13:27:41.264Z,36.47
2022-11-21T13:30:07.731Z,36.47
2022-11-21T13:32:34.026Z,36.69
2022-11-21T13:35:00.450Z,36.86
2022-11-21T13:37:26.804Z,36.86
2022-11-21T13:39:53.216Z,36.62
2022-11-21T13:42:20.706Z,36.60
2022-11-21T13:44:47.013Z,36.67
2022-11-21T13:47:12.404Z,36.68
2022-11-21T13:49:38.848Z,36.74
2022-11-21T13:52:05.200Z,36.64
2022-11-21T13:54:31.600Z,36.65
2022-11-21T13:56:57.963Z,36.59
2022-11-21T13:59:24.412Z,36.50
2022-11-21T14:01:51.872Z,36.53
2022-11-21T14:04:18.306Z,36.47
2022-11-21T14:06:44.783Z,36.51
2022-11-21T14:09:11.127Z,36.98
2022-11-21T14:11:37.475Z,36.98
2022-11-21T14:14:03.930Z,36.40
2022-11-21T14:16:30.276Z,36.43
2022-11-21T14:18:56.701Z,36.41
2022-11-21T14:21:23.175Z,36.40
2022-11-21T14:23:49.557Z,36.35
2022-11-21T14:26:15.952Z,36.36
2022-11-21T14:28:42.359Z,36.37
2022-11-21T14:31:08.713Z,36.34
2022-11-21T14:33:35.156Z,36.30
2022-11-21T14:36:01.555Z,36.29
2022-11-21T14:38:27.959Z,36.29
2022-11-21T14:40:54.314Z,36.22
2022-11-21T14:43:20.714Z,36.27
2022-11-21T14:45:48.056Z,36.88
2022-11-21T14:48:13.476Z,36.88
2022-11-21T14:50:39.815Z,36.49
2022-11-21T14:53:06.200Z,36.41
2022-11-21T14:55:32.602Z,36.46
2022-11-21T14:57:59.010Z,36.40
2022-11-21T15:00:57.324Z,36.40
2022-11-21T15:02:51.835Z,36.35
2022-11-21T15:07:44.594Z,36.45
2022-11-21T15:10:29.446Z,36.38
2022-11-21T15:12:40.363Z,36.49
2022-11-21T15:15:03.733Z,36.49
2022-11-21T15:17:30.121Z,36.35
2022-11-21T15:19:56.490Z,36.31
2022-11-21T15:22:22.926Z,36.25
2022-11-21T15:24:49.281Z,36.04
2022-11-21T15:27:15.689Z,36.04
2022-11-21T15:29:42.085Z,36.12
2022-11-21T15:32:10.487Z,36.13
2022-11-21T15:34:36.447Z,36.14
2022-11-21T15:37:01.252Z,36.11
2022-11-21T15:39:27.618Z,36.10
2022-11-21T15:41:54.016Z,36.16
2022-11-21T15:44:20.433Z,36.05
2022-11-21T15:46:47.139Z,36.05
2022-11-21T15:49:32.074Z,36.07
2022-11-21T15:52:09.801Z,36.18
2022-11-21T15:54:06.115Z,36.13
2022-11-21T15:56:32.503Z,36.00
2022-11-21T15:57:15.975Z,36.35
2022-11-21T15:58:58.850Z,35.95
2022-11-21T16:01:25.350Z,35.95
2022-11-21T16:03:51.607Z,35.90
2022-11-21T16:06:17.994Z,35.91
2022-11-21T16:08:47.094Z,35.96
2022-11-21T16:11:12.890Z,35.98
2022-11-21T16:13:39.224Z,35.99
2022-11-21T16:16:05.614Z,35.99
2022-11-21T16:18:31.962Z,35.99
2022-11-21T16:20:59.024Z,35.56
2022-11-21T16:23:24.687Z,35.56
2022-11-21T16:25:51.094Z,36.03
2022-11-21T16:28:17.477Z,35.94
2022-11-21T16:30:43.870Z,35.90
2022-11-21T16:33:10.211Z,35.74
2022-11-21T16:35:36.607Z,35.77
2022-11-21T16:38:02.954Z,35.78
2022-11-21T16:40:29.381Z,35.74
2022-11-21T16:42:55.725Z,35.76
2022-11-21T16:45:22.143Z,35.70
2022-11-21T16:47:49.245Z,35.68
2022-11-21T16:50:15.213Z,35.64
2022-11-21T16:52:41.561Z,35.63
2022-11-21T16:55:07.963Z,35.58
2022-11-21T16:57:34.311Z,35.68
2022-11-21T17:00:00.867Z,35.57
2022-11-21T17:02:27.072Z,35.54
2022-11-21T17:04:53.462Z,35.49
2022-11-21T17:07:19.837Z,35.45
2022-11-21T17:09:46.225Z,35.38
2022-11-21T17:12:12.563Z,35.38
2022-11-21T17:14:38.943Z,35.35
2022-11-21T17:17:05.287Z,35.42
2022-11-21T17:19:31.679Z,35.27
2022-11-21T17:21:58.028Z,35.28
2022-11-21T17:24:24.421Z,35.26
2022-11-21T17:26:50.758Z,35.12
2022-11-21T17:29:17.158Z,35.14
2022-11-21T17:31:43.507Z,35.17
2022-11-21T17:34:09.923Z,35.18
2022-11-21T17:36:36.277Z,35.17
2022-11-21T17:39:02.659Z,35.06
2022-11-21T17:41:29.043Z,34.97
2022-11-21T17:43:55.425Z,35.00
2022-11-21T17:46:21.774Z,34.96
2022-11-21T17:48:53.217Z,34.95
2022-11-21T17:51:14.518Z,34.92
2022-11-21T17:53:40.911Z,34.93
2022-11-21T17:56:07.291Z,34.91
2022-11-21T17:58:33.702Z,34.85
2022-11-21T18:01:00.134Z,34.83
2022-11-21T18:03:26.466Z,34.81
2022-11-21T18:05:53.427Z,34.80
2022-11-21T18:08:21.392Z,34.81
2022-11-21T18:10:47.758Z,34.80
2022-11-21T18:13:16.527Z,34.82
2022-11-21T18:15:42.884Z,34.83
2022-11-21T18:18:09.267Z,34.86
2022-11-21T18:20:35.636Z,34.81
2022-11-21T18:23:02.024Z,34.81
2022-11-21T18:25:28.380Z,34.78
2022-11-21T18:27:54.962Z,34.74
2022-11-21T18:30:21.197Z,34.75
2022-11-21T18:32:47.588Z,34.76
2022-11-21T18:35:13.935Z,34.70
2022-11-21T18:37:40.320Z,34.63
2022-11-21T18:40:06.664Z,34.59
2022-11-21T18:42:33.064Z,34.60
2022-11-21T18:44:59.413Z,34.60
2022-11-21T18:47:25.794Z,34.64
2022-11-21T18:49:52.219Z,34.66
2022-11-21T18:52:18.532Z,34.66
2022-11-21T18:54:44.874Z,34.66
2022-11-21T18:57:11.304Z,34.61
2022-11-21T18:59:37.650Z,34.53
2022-11-21T19:02:04.120Z,34.51
2022-11-21T19:04:30.527Z,34.56
2022-11-21T19:06:56.932Z,34.61
2022-11-21T19:09:26.836Z,34.73
2022-11-21T19:11:49.678Z,34.83
2022-11-21T19:14:16.011Z,34.88
2022-11-21T19:16:42.450Z,35.09
2022-11-21T19:21:35.179Z,35.25
2022-11-21T19:24:03.959Z,35.42
2022-11-21T19:26:30.358Z,35.48
2022-11-21T19:28:56.701Z,35.55
2022-11-21T19:31:24.191Z,35.57
2022-11-21T19:33:50.544Z,35.61
2022-11-21T19:36:16.965Z,35.73
2022-11-21T19:38:49.115Z,35.78
2022-11-21T19:41:09.704Z,35.80
2022-11-21T19:43:36.052Z,35.85
2022-11-21T19:46:02.444Z,35.92
2022-11-21T19:48:28.781Z,35.97
2022-11-21T19:50:58.309Z,36.01
2022-11-21T19:53:21.538Z,36.10
2022-11-21T19:55:47.918Z,36.12
2022-11-21T19:58:14.262Z,36.15
2022-11-21T20:00:40.711Z,36.22
2022-11-21T20:03:08.037Z,36.28
2022-11-21T20:05:33.444Z,36.32
2022-11-21T20:08:04.642Z,36.38
2022-11-21T20:10:27.127Z,36.42
2022-11-21T20:12:52.532Z,36.42
2022-11-21T20:15:18.927Z,36.48
2022-11-21T20:17:45.282Z,36.50
2022-11-21T20:20:11.666Z,36.51
2022-11-21T20:22:38.019Z,36.60
2022-11-21T20:25:04.407Z,36.61
2022-11-21T20:27:30.739Z,36.63
2022-11-21T20:29:57.136Z,36.67
2022-11-21T20:32:23.507Z,36.71
2022-11-21T20:34:49.898Z,36.74
2022-11-21T20:37:16.248Z,36.78
2022-11-21T20:39:42.668Z,36.80
2022-11-21T20:42:08.979Z,36.85
2022-11-21T20:45:29.995Z,36.86
2022-11-21T20:47:01.724Z,36.88
2022-11-21T20:49:28.386Z,36.94
2022-11-21T20:53:43.989Z,36.99
2022-11-21T20:54:20.876Z,37.00
2022-11-21T20:56:47.215Z,37.04
2022-11-21T20:59:13.602Z,37.09
2022-11-21T21:01:40.019Z,37.12
2022-11-21T21:04:06.338Z,37.13
2022-11-21T21:06:32.687Z,37.19
2022-11-21T21:08:59.091Z,37.20
2022-11-21T21:13:51.815Z,37.23
2022-11-21T21:16:18.151Z,37.30
2022-11-21T21:18:49.173Z,37.32
2022-11-21T21:21:17.016Z,37.33
2022-11-21T21:23:37.278Z,37.39
2022-11-21T21:26:03.634Z,37.39
2022-11-21T21:28:30.015Z,37.42
2022-11-21T21:30:56.370Z,37.43
2022-11-21T21:33:22.763Z,37.44
2022-11-21T21:35:49.123Z,37.46
2022-11-21T21:38:15.516Z,37.46
2022-11-21T21:40:41.866Z,37.49
2022-11-21T21:43:08.254Z,37.53
2022-11-21T21:45:34.589Z,37.56
2022-11-21T21:48:00.993Z,37.56
2022-11-21T21:50:27.338Z,37.59
2022-11-21T21:52:53.729Z,37.66
2022-11-21T21:55:22.475Z,37.66
2022-11-21T21:57:52.486Z,37.68
2022-11-21T22:00:15.211Z,37.70
2022-11-21T22:02:41.601Z,37.70
2022-11-21T22:05:07.993Z,37.72
2022-11-21T22:07:34.391Z,37.75
2022-11-21T22:10:00.680Z,37.77
2022-11-21T22:12:27.069Z,37.81
2022-11-21T22:14:53.425Z,37.80
2022-11-21T22:17:19.853Z,37.85
2022-11-21T22:19:46.202Z,37.88
2022-11-21T22:22:12.581Z,37.86
2022-11-21T22:24:39.102Z,37.91
2022-11-21T22:27:05.315Z,37.92
2022-11-21T22:29:31.669Z,37.95
2022-11-21T22:31:58.062Z,37.96
2022-11-21T22:34:24.429Z,37.98
2022-11-21T22:36:50.769Z,38.01
2022-11-21T22:39:17.156Z,38.04
2022-11-21T22:41:43.510Z,38.03
2022-11-21T22:44:09.893Z,38.08
2022-11-21T22:46:37.437Z,38.05
2022-11-21T22:49:02.621Z,38.09
2022-11-21T22:51:28.981Z,38.13
2022-11-21T22:53:57.792Z,38.14
2022-11-21T22:56:24.131Z,38.16
2022-11-21T22:58:50.503Z,38.20
2022-11-21T23:01:16.894Z,38.18
2022-11-21T23:03:43.244Z,38.21
2022-11-21T23:06:09.678Z,38.26
2022-11-21T23:08:36.043Z,38.28
2022-11-21T23:11:02.393Z,38.30
2022-11-21T23:13:28.775Z,38.29
2022-11-21T23:15:55.117Z,38.30
2022-11-21T23:18:21.549Z,38.34
2022-11-21T23:20:47.852Z,38.37
2022-11-21T23:23:14.245Z,38.37
2022-11-21T23:25:40.593Z,38.38
2022-11-21T23:28:06.994Z,38.45
2022-11-21T23:30:33.340Z,38.45
2022-11-21T23:32:59.724Z,38.47
2022-11-21T23:35:26.072Z,38.45
2022-11-21T23:37:52.475Z,38.48
2022-11-21T23:40:18.874Z,38.49
2022-11-21T23:42:45.256Z,38.49
2022-11-21T23:45:11.597Z,38.52
2022-11-21T23:47:37.992Z,38.53
2022-11-21T23:50:05.429Z,38.49
2022-11-21T23:52:30.724Z,38.56
2022-11-21T23:54:57.111Z,38.57
2022-11-21T23:57:23.498Z,38.59
2022-11-21T23:59:49.838Z,38.60
